Time;durP1;ratioP1;P1;durP2;ratioP2;P2;SDS_P1;SDS_P2;PMS_P1;PMS_P2;Temp;Humidity;BMP_temperature;BMP_pressure;BME280_temperature;BME280_humidity;BME280_pressure;Samples;Min_cycle;Max_cycle;Signal;HPM_P1;HPM_P2
2022/09/14 00:01:14;;;;;;;1.95;0.60;;;15.20;99.90;;;;;;6101983;23;20021;-88
2022/09/14 00:03:40;;;;;;;0.88;0.50;;;15.20;99.90;;;;;;6126608;23;20013;-88
2022/09/14 00:06:09;;;;;;;2.25;0.60;;;15.10;99.90;;;;;;6102267;23;20025;-88
2022/09/14 00:08:36;;;;;;;2.63;0.77;;;15.10;99.90;;;;;;6152379;23;20396;-87
2022/09/14 00:11:08;;;;;;;2.33;0.65;;;15.10;99.90;;;;;;6102031;23;20057;-88
2022/09/14 00:13:35;;;;;;;3.58;0.80;;;15.10;99.90;;;;;;6126202;23;20068;-88
2022/09/14 00:16:06;;;;;;;2.67;0.98;;;15.10;99.90;;;;;;6126537;23;20017;-88
2022/09/14 00:18:33;;;;;;;1.65;0.73;;;15.10;99.90;;;;;;6126507;23;20025;-89
2022/09/14 00:21:01;;;;;;;1.55;0.70;;;15.10;99.90;;;;;;6126595;23;20469;-87
2022/09/14 00:23:27;;;;;;;2.80;0.70;;;15.10;99.90;;;;;;6126149;23;20017;-88
2022/09/14 00:25:53;;;;;;;1.50;0.70;;;15.10;99.90;;;;;;6126248;23;20028;-88
2022/09/14 00:28:19;;;;;;;2.45;0.73;;;15.10;99.90;;;;;;6126339;23;20017;-89
2022/09/14 00:30:45;;;;;;;1.25;0.63;;;15.10;99.90;;;;;;6126388;23;20090;-88
2022/09/14 00:33:12;;;;;;;3.03;1.00;;;15.10;99.90;;;;;;6126148;23;20332;-90
2022/09/14 00:35:38;;;;;;;;;;;15.10;99.90;;;;;;6147557;22;20027;-87
2022/09/14 00:38:05;;;;;;;1.40;0.80;;;15.10;99.90;;;;;;6128841;22;19917;-88
2022/09/14 00:40:30;;;;;;;3.08;0.80;;;15.10;99.90;;;;;;6126290;23;20053;-90
2022/09/14 00:42:56;;;;;;;1.65;0.55;;;15.20;99.90;;;;;;6126125;23;20023;-88
2022/09/14 00:45:23;;;;;;;2.10;0.60;;;15.20;99.90;;;;;;6102448;23;20096;-88
2022/09/14 00:47:52;;;;;;;1.73;0.70;;;15.20;99.90;;;;;;6126170;23;20241;-88
2022/09/14 00:50:19;;;;;;;2.17;0.93;;;15.20;99.90;;;;;;6125791;23;20024;-88
2022/09/14 00:52:47;;;;;;;2.03;0.60;;;15.20;99.90;;;;;;6126209;23;20103;-88
2022/09/14 00:55:17;;;;;;;1.70;0.60;;;15.20;99.90;;;;;;6127218;23;20025;-88
2022/09/14 00:57:52;;;;;;;1.27;0.57;;;15.20;99.90;;;;;;6133407;23;20045;-85
2022/09/14 01:00:21;;;;;;;2.05;0.80;;;15.20;99.90;;;;;;6134494;23;20017;-87
2022/09/14 01:02:47;;;;;;;2.50;0.65;;;15.20;99.90;;;;;;6125941;23;20036;-89
2022/09/14 01:05:14;;;;;;;2.20;0.60;;;15.20;99.90;;;;;;6125793;23;20443;-90
2022/09/14 01:07:43;;;;;;;;;;;15.10;99.90;;;;;;6137947;23;20017;-88
2022/09/14 01:10:14;;;;;;;1.67;0.50;;;15.20;99.90;;;;;;6155487;23;19917;-88
2022/09/14 01:12:55;;;;;;;2.33;0.73;;;15.20;99.90;;;;;;6155591;23;20017;-88
2022/09/14 01:15:21;;;;;;;1.48;0.60;;;15.20;99.90;;;;;;6155804;22;20017;-88
2022/09/14 01:18:14;;;;;;;3.27;0.67;;;15.20;99.90;;;;;;6130945;23;20092;-89
2022/09/14 01:21:09;;;;;;;2.03;0.55;;;15.20;99.90;;;;;;6155639;23;20383;-88
2022/09/14 01:24:13;;;;;;;1.85;0.70;;;15.20;99.90;;;;;;6182108;22;20017;-89
2022/09/14 01:26:58;;;;;;;3.03;0.73;;;15.20;99.90;;;;;;6155601;23;20017;-89
2022/09/14 01:29:47;;;;;;;4.05;0.70;;;15.30;99.90;;;;;;6155447;23;20021;-89
2022/09/14 01:32:27;;;;;;;1.92;0.77;;;15.30;99.90;;;;;;6131536;23;20025;-89
2022/09/14 01:35:16;;;;;;;1.65;0.60;;;15.20;99.90;;;;;;6158745;23;20016;-85
2022/09/14 01:37:54;;;;;;;1.58;0.60;;;15.30;99.90;;;;;;6169348;23;20021;-88
2022/09/14 01:40:29;;;;;;;1.40;0.50;;;15.30;99.90;;;;;;6157348;23;20025;-88
2022/09/14 01:43:00;;;;;;;1.15;0.45;;;15.30;99.90;;;;;;6155397;23;20017;-88
2022/09/14 01:45:28;;;;;;;2.28;1.20;;;15.30;99.90;;;;;;6130776;23;20025;-89
2022/09/14 01:47:58;;;;;;;0.70;0.43;;;15.30;99.90;;;;;;6155433;22;20021;-90
2022/09/14 01:50:44;;;;;;;1.70;0.75;;;15.20;99.90;;;;;;6131173;23;20048;-88
2022/09/14 01:53:45;;;;;;;1.25;0.60;;;15.20;99.90;;;;;;6181661;22;20331;-89
2022/09/14 01:56:40;;;;;;;0.73;0.40;;;15.20;99.90;;;;;;6155544;23;20025;-87
2022/09/14 01:59:15;;;;;;;0.90;0.50;;;15.20;99.90;;;;;;6154940;23;20021;-87
2022/09/14 02:01:48;;;;;;;0.85;0.30;;;15.30;99.90;;;;;;6181136;23;20111;-87
2022/09/14 02:04:20;;;;;;;2.58;0.43;;;15.20;99.90;;;;;;6155541;23;20028;-88
2022/09/14 02:06:47;;;;;;;2.00;0.65;;;15.20;99.90;;;;;;6154469;23;20028;-88
2022/09/14 02:09:17;;;;;;;1.85;0.60;;;15.20;99.90;;;;;;6125969;23;20100;-87
2022/09/14 02:11:43;;;;;;;2.30;0.73;;;15.20;99.90;;;;;;6125892;23;20040;-87
2022/09/14 02:14:09;;;;;;;2.42;0.57;;;15.20;99.90;;;;;;6125890;23;20021;-88
2022/09/14 02:16:35;;;;;;;2.00;0.70;;;15.20;99.90;;;;;;6133063;23;20022;-88
2022/09/14 02:19:01;;;;;;;2.58;0.85;;;15.20;99.90;;;;;;6125869;23;20053;-87
2022/09/14 02:21:29;;;;;;;2.50;0.63;;;15.20;99.90;;;;;;6117637;23;20021;-88
2022/09/14 02:23:57;;;;;;;1.77;0.60;;;15.20;99.90;;;;;;6135156;22;20016;-88
2022/09/14 02:26:23;;;;;;;1.63;0.70;;;15.30;99.90;;;;;;6125487;23;20024;-87
2022/09/14 02:28:54;;;;;;;1.92;0.70;;;15.20;99.90;;;;;;6125939;23;20013;-90
2022/09/14 02:31:51;;;;;;;2.75;0.68;;;15.20;99.90;;;;;;6125926;23;20053;-88
2022/09/14 02:35:01;;;;;;;2.03;0.80;;;15.20;99.90;;;;;;6125648;23;20018;-88
2022/09/14 02:37:38;;;;;;;2.45;0.85;;;15.20;99.90;;;;;;6078624;23;20048;-87
2022/09/14 02:40:22;;;;;;;1.15;0.40;;;15.20;99.90;;;;;;6101345;23;20025;-89
2022/09/14 02:43:09;;;;;;;1.60;0.55;;;15.20;99.90;;;;;;6125706;23;20018;-88
2022/09/14 02:45:54;;;;;;;2.17;0.80;;;15.20;99.90;;;;;;6125504;23;20018;-87
2022/09/14 02:48:40;;;;;;;1.55;0.60;;;15.20;99.90;;;;;;6125725;23;20070;-88
2022/09/14 02:51:27;;;;;;;1.48;0.60;;;15.20;99.90;;;;;;6145298;22;20024;-90
2022/09/14 02:54:04;;;;;;;2.63;0.98;;;15.30;99.90;;;;;;6148987;22;20020;-88
2022/09/14 02:56:31;;;;;;;2.30;0.80;;;15.30;99.90;;;;;;6125733;23;20447;-88
2022/09/14 02:58:57;;;;;;;2.35;0.70;;;15.30;99.90;;;;;;6101353;23;20057;-88
2022/09/14 03:01:24;;;;;;;1.10;0.63;;;15.30;99.90;;;;;;6125636;23;20024;-87
2022/09/14 03:03:50;;;;;;;2.13;0.60;;;15.30;99.90;;;;;;6101073;23;20340;-87
2022/09/14 03:06:16;;;;;;;1.42;0.70;;;15.30;99.90;;;;;;6100996;23;20112;-89
2022/09/14 03:08:42;;;;;;;2.40;0.70;;;15.30;99.90;;;;;;6124683;23;20535;-88
2022/09/14 03:11:07;;;;;;;1.80;0.63;;;15.30;99.90;;;;;;6207072;22;20017;-88
2022/09/14 03:13:34;;;;;;;2.58;0.73;;;15.30;99.90;;;;;;6130972;23;20074;-89
2022/09/14 03:16:13;;;;;;;1.95;0.65;;;15.30;99.90;;;;;;6156041;23;20052;-88
2022/09/14 03:18:39;;;;;;;1.38;0.73;;;15.30;99.90;;;;;;6156582;23;20024;-88
2022/09/14 03:21:10;;;;;;;1.60;0.70;;;15.30;99.90;;;;;;6156200;23;20052;-88
2022/09/14 03:23:42;;;;;;;1.95;0.60;;;15.30;99.90;;;;;;6130820;23;20032;-88
2022/09/14 03:26:09;;;;;;;2.13;0.82;;;15.30;99.90;;;;;;6182760;22;20024;-88
2022/09/14 03:28:36;;;;;;;2.05;0.63;;;15.30;99.90;;;;;;6131783;23;20055;-88
2022/09/14 03:31:03;;;;;;;1.55;0.80;;;15.30;99.90;;;;;;6155709;23;20450;-88
2022/09/14 03:33:29;;;;;;;2.33;0.52;;;15.30;99.90;;;;;;6131534;23;20017;-87
2022/09/14 03:35:55;;;;;;;1.83;0.60;;;15.30;99.90;;;;;;6131693;23;20028;-88
2022/09/14 03:38:21;;;;;;;1.98;0.63;;;15.30;99.90;;;;;;6195528;22;20021;-88
2022/09/14 03:40:47;;;;;;;1.15;0.40;;;15.30;99.90;;;;;;6155889;23;20021;-88
2022/09/14 03:43:13;;;;;;;2.03;0.60;;;15.30;99.90;;;;;;6197052;22;20354;-89
2022/09/14 03:45:39;;;;;;;2.50;0.57;;;15.30;99.90;;;;;;6182513;23;20024;-87
2022/09/14 03:48:06;;;;;;;1.63;0.60;;;15.30;99.90;;;;;;6156031;22;20023;-87
2022/09/14 03:50:32;;;;;;;;;;;15.30;99.90;;;;;;6201161;22;20092;-87
2022/09/14 03:52:58;;;;;;;1.23;0.50;;;15.30;99.90;;;;;;6154107;23;19917;-88
2022/09/14 03:55:24;;;;;;;2.60;0.47;;;15.30;99.90;;;;;;6155844;23;20027;-89
2022/09/14 03:57:54;;;;;;;2.20;0.70;;;15.30;99.90;;;;;;6152817;23;20379;-88
2022/09/14 04:00:21;;;;;;;1.35;0.50;;;15.30;99.90;;;;;;6155914;23;20399;-88
2022/09/14 04:02:46;;;;;;;;;;;15.30;99.90;;;;;;6152342;22;20082;-88
2022/09/14 04:05:12;;;;;;;1.20;0.47;;;15.30;99.90;;;;;;6286105;22;19913;-89
2022/09/14 04:07:38;;;;;;;2.05;0.63;;;15.30;99.90;;;;;;6188533;22;20013;-88
2022/09/14 04:10:04;;;;;;;2.15;0.50;;;15.30;99.90;;;;;;6155897;23;20077;-87
2022/09/14 04:12:36;;;;;;;0.80;0.40;;;15.30;99.90;;;;;;6156104;22;20024;-88
2022/09/14 04:15:06;;;;;;;3.05;0.63;;;15.30;99.90;;;;;;6155964;22;20096;-88
2022/09/14 04:17:32;;;;;;;1.25;0.40;;;15.30;99.90;;;;;;6155906;22;20043;-88
2022/09/14 04:19:57;;;;;;;2.80;0.40;;;15.30;99.90;;;;;;6131482;23;20025;-89
2022/09/14 04:22:23;;;;;;;1.43;0.60;;;15.30;99.90;;;;;;6286446;22;20135;-88
2022/09/14 04:24:49;;;;;;;1.75;0.43;;;15.30;99.90;;;;;;6286461;22;20021;-86
2022/09/14 04:27:16;;;;;;;0.50;0.30;;;15.30;99.90;;;;;;6156392;22;20017;-89
2022/09/14 04:29:41;;;;;;;1.02;0.43;;;15.30;99.90;;;;;;6188044;22;20069;-90
2022/09/14 04:32:07;;;;;;;1.05;0.40;;;15.40;99.90;;;;;;6285852;22;20399;-87
2022/09/14 04:34:34;;;;;;;2.10;0.52;;;15.40;99.90;;;;;;6131312;23;20095;-89
2022/09/14 04:37:00;;;;;;;1.90;0.40;;;15.40;99.90;;;;;;6155554;22;20044;-87
2022/09/14 04:39:27;;;;;;;2.47;0.40;;;15.40;99.90;;;;;;6131288;23;20345;-88
2022/09/14 04:41:52;;;;;;;;;;;15.40;99.90;;;;;;6156303;23;20013;-88
2022/09/14 04:44:18;;;;;;;1.17;0.50;;;15.40;99.90;;;;;;6156074;22;20367;-88
2022/09/14 04:46:44;;;;;;;2.13;0.57;;;15.40;99.90;;;;;;6155556;22;20440;-88
2022/09/14 04:49:09;;;;;;;1.03;0.47;;;15.40;99.90;;;;;;6286176;22;20021;-88
2022/09/14 04:51:36;;;;;;;2.22;0.52;;;15.40;99.90;;;;;;6286052;22;20024;-89
2022/09/14 04:54:04;;;;;;;0.80;0.30;;;15.40;99.90;;;;;;6312308;22;20017;-88
2022/09/14 04:56:35;;;;;;;2.92;0.40;;;15.40;99.90;;;;;;6308673;22;20397;-89
2022/09/14 04:59:03;;;;;;;1.20;0.40;;;15.40;99.90;;;;;;6155267;22;20017;-87
2022/09/14 05:01:34;;;;;;;2.15;0.52;;;15.40;99.90;;;;;;6283789;22;20021;-87
2022/09/14 05:04:01;;;;;;;2.20;0.50;;;15.40;99.90;;;;;;6156548;22;20013;-88
2022/09/14 05:06:30;;;;;;;1.45;0.50;;;15.40;99.90;;;;;;6163711;22;20017;-87
2022/09/14 05:08:58;;;;;;;1.98;0.40;;;15.40;99.90;;;;;;6194363;22;20537;-88
2022/09/14 05:11:29;;;;;;;0.77;0.40;;;15.40;99.90;;;;;;6285222;22;20019;-88
2022/09/14 05:14:13;;;;;;;1.02;0.50;;;15.40;99.90;;;;;;6307872;22;20015;-85
2022/09/14 05:16:41;;;;;;;1.58;0.77;;;15.30;99.90;;;;;;6280729;22;20027;-87
2022/09/14 05:19:10;;;;;;;2.00;0.70;;;15.40;99.90;;;;;;6151863;23;20017;-86
2022/09/14 05:21:36;;;;;;;2.22;0.50;;;15.40;99.90;;;;;;6255042;22;20028;-89
2022/09/14 05:24:11;;;;;;;1.30;0.40;;;15.40;99.90;;;;;;6254913;22;20101;-90
2022/09/14 05:26:37;;;;;;;1.63;0.55;;;15.40;99.90;;;;;;6152667;22;20056;-86
2022/09/14 05:29:30;;;;;;;2.58;0.50;;;15.40;99.90;;;;;;6228933;23;20021;-88
2022/09/14 05:32:08;;;;;;;2.03;0.60;;;15.40;99.90;;;;;;6229636;23;20018;-86
2022/09/14 05:34:53;;;;;;;1.30;0.50;;;15.40;99.90;;;;;;6227274;22;20091;-87
2022/09/14 05:37:18;;;;;;;3.42;0.95;;;15.40;99.90;;;;;;6254732;22;20024;-86
2022/09/14 05:39:44;;;;;;;2.20;0.70;;;15.40;99.90;;;;;;6101704;23;20025;-85
2022/09/14 05:42:09;;;;;;;2.10;0.43;;;15.40;99.90;;;;;;6102942;22;20256;-87
2022/09/14 05:44:35;;;;;;;3.70;0.60;;;15.40;99.90;;;;;;6255462;22;20052;-87
2022/09/14 05:47:01;;;;;;;1.77;0.60;;;15.40;99.90;;;;;;6084433;22;20349;-87
2022/09/14 05:49:26;;;;;;;1.87;0.60;;;15.40;99.90;;;;;;6101630;23;20702;-87
2022/09/14 05:51:52;;;;;;;2.40;0.57;;;15.40;99.90;;;;;;6253796;22;20446;-87
2022/09/14 05:54:24;;;;;;;3.22;1.25;;;15.50;99.90;;;;;;6229098;23;20070;-86
2022/09/14 05:56:50;;;;;;;1.65;0.45;;;15.40;99.90;;;;;;6108829;22;20022;-87
2022/09/14 05:59:16;;;;;;;2.08;0.57;;;15.40;99.90;;;;;;6227802;23;20022;-87
2022/09/14 06:01:41;;;;;;;1.90;0.70;;;15.40;99.90;;;;;;6126093;23;20021;-88
2022/09/14 06:04:10;;;;;;;2.28;0.90;;;15.50;99.90;;;;;;6255830;22;20076;-87
2022/09/14 06:06:36;;;;;;;5.18;0.93;;;15.50;99.90;;;;;;6253539;22;20018;-87
2022/09/14 06:09:03;;;;;;;1.90;0.80;;;15.50;99.90;;;;;;6182090;23;20286;-88
2022/09/14 06:11:32;;;;;;;3.70;1.08;;;15.50;99.90;;;;;;6151501;22;20032;-87
2022/09/14 06:13:59;;;;;;;2.42;0.63;;;15.50;99.90;;;;;;6153689;23;20032;-88
2022/09/14 06:16:26;;;;;;;2.25;0.60;;;15.50;99.90;;;;;;6152305;23;20111;-86
2022/09/14 06:18:54;;;;;;;1.67;0.60;;;15.50;99.90;;;;;;6129442;23;20021;-87
2022/09/14 06:21:28;;;;;;;1.23;0.40;;;15.50;99.90;;;;;;6155204;23;20021;-85
2022/09/14 06:23:54;;;;;;;0.93;0.43;;;15.60;99.90;;;;;;6130515;23;20028;-87
2022/09/14 06:26:20;;;;;;;;;;;15.60;99.90;;;;;;6131053;23;20434;-86
2022/09/14 06:28:46;;;;;;;1.52;0.60;;;15.60;99.90;;;;;;6259286;22;19912;-87
2022/09/14 06:31:13;;;;;;;1.85;0.50;;;15.60;99.90;;;;;;6155203;22;20140;-86
2022/09/14 06:33:46;;;;;;;1.88;0.40;;;15.60;99.90;;;;;;6181286;23;20046;-86
2022/09/14 06:36:15;;;;;;;1.15;0.50;;;15.70;99.90;;;;;;6154989;22;20021;-86
2022/09/14 06:38:41;;;;;;;2.33;0.60;;;15.70;99.90;;;;;;6154913;23;20092;-84
2022/09/14 06:41:11;;;;;;;1.80;0.50;;;15.70;99.90;;;;;;6106101;23;20017;-85
2022/09/14 06:43:38;;;;;;;2.15;0.60;;;15.70;99.90;;;;;;6154921;22;20017;-85
2022/09/14 06:46:08;;;;;;;1.67;0.55;;;15.70;99.90;;;;;;6154701;23;20028;-84
2022/09/14 06:48:37;;;;;;;1.88;0.68;;;15.70;99.90;;;;;;6129933;23;20029;-85
2022/09/14 06:51:18;;;;;;;1.95;0.60;;;15.70;99.90;;;;;;6154721;22;20028;-84
2022/09/14 06:53:45;;;;;;;1.58;0.52;;;15.80;99.90;;;;;;6155004;22;20055;-84
2022/09/14 06:56:12;;;;;;;1.90;0.50;;;15.80;99.90;;;;;;6130260;23;20017;-84
2022/09/14 06:58:38;;;;;;;0.45;0.30;;;15.90;99.90;;;;;;6154428;22;20021;-85
2022/09/14 07:01:07;;;;;;;2.60;1.00;;;15.90;99.90;;;;;;6154849;22;20017;-87
2022/09/14 07:03:35;;;;;;;2.78;0.82;;;15.90;99.90;;;;;;6154901;23;20319;-90
2022/09/14 07:06:09;;;;;;;1.02;0.50;;;15.90;99.90;;;;;;6181295;23;20021;-88
2022/09/14 07:08:37;;;;;;;1.70;0.50;;;15.90;99.90;;;;;;6154464;23;20021;-87
2022/09/14 07:11:04;;;;;;;1.77;0.60;;;15.90;99.90;;;;;;6153205;22;20017;-86
2022/09/14 07:13:31;;;;;;;1.90;0.60;;;16.00;99.90;;;;;;6153051;22;20025;-87
2022/09/14 07:15:57;;;;;;;1.98;0.63;;;16.10;99.90;;;;;;6130313;23;20013;-87
2022/09/14 07:18:27;;;;;;;2.40;0.68;;;16.00;99.90;;;;;;6129992;23;20025;-86
2022/09/14 07:23:28;;;;;;;1.15;0.57;;;16.10;99.90;;;;;;6210336;23;20073;-85
2022/09/14 07:26:03;;;;;;;2.05;0.70;;;16.10;99.90;;;;;;6184256;23;20024;-86
2022/09/14 07:28:28;;;;;;;3.63;0.68;;;16.10;99.90;;;;;;6184306;23;20017;-87
2022/09/14 07:30:54;;;;;;;3.25;0.60;;;16.20;99.90;;;;;;6209168;23;20074;-86
2022/09/14 07:33:20;;;;;;;3.33;0.80;;;16.20;99.90;;;;;;6209130;23;20059;-85
2022/09/14 07:35:46;;;;;;;2.15;0.68;;;16.30;99.90;;;;;;6209227;23;20017;-87
2022/09/14 07:38:11;;;;;;;2.10;0.87;;;16.30;99.90;;;;;;6209209;23;20025;-88
2022/09/14 07:40:37;;;;;;;1.80;0.50;;;16.30;99.90;;;;;;6184028;23;20384;-87
2022/09/14 07:43:03;;;;;;;1.27;0.40;;;16.40;99.90;;;;;;6209327;23;20027;-87
2022/09/14 07:45:30;;;;;;;2.92;0.70;;;16.40;99.90;;;;;;6159434;23;20020;-85
2022/09/14 07:47:55;;;;;;;;;;;16.40;99.90;;;;;;6184550;23;20013;-86
2022/09/14 07:50:21;;;;;;;3.70;1.05;;;16.40;99.90;;;;;;6183858;23;20242;-85
2022/09/14 07:52:50;;;;;;;4.75;0.77;;;16.40;99.90;;;;;;6209316;23;20012;-85
2022/09/14 07:55:16;;;;;;;2.30;0.65;;;16.50;99.90;;;;;;6210097;23;20013;-85
2022/09/14 07:57:41;;;;;;;1.25;0.52;;;16.50;99.90;;;;;;6194119;23;20097;-86
2022/09/14 08:00:09;;;;;;;2.72;0.60;;;16.50;99.90;;;;;;6217855;23;20024;-88
2022/09/14 08:02:35;;;;;;;2.42;0.55;;;16.50;99.90;;;;;;6185498;23;20070;-88
2022/09/14 08:05:01;;;;;;;1.85;0.85;;;16.60;99.90;;;;;;6210486;23;20020;-87
2022/09/14 08:07:26;;;;;;;1.73;0.70;;;16.60;99.90;;;;;;6185493;23;20016;-85
2022/09/14 08:09:52;;;;;;;1.85;0.50;;;16.60;99.90;;;;;;6185388;23;20538;-85
2022/09/14 08:12:18;;;;;;;2.55;0.77;;;16.60;99.90;;;;;;6210690;23;20540;-88
2022/09/14 08:14:43;;;;;;;1.52;0.38;;;16.70;99.90;;;;;;6210541;23;20025;-86
2022/09/14 08:17:09;;;;;;;2.72;0.40;;;16.70;99.90;;;;;;6210434;23;20476;-86
2022/09/14 08:19:36;;;;;;;1.88;0.38;;;16.70;99.90;;;;;;6210235;23;20027;-86
2022/09/14 08:22:03;;;;;;;0.88;0.10;;;16.70;99.90;;;;;;6185281;23;20398;-85
2022/09/14 08:24:29;;;;;;;3.70;1.10;;;16.80;99.90;;;;;;6160528;23;20024;-85
2022/09/14 08:26:55;;;;;;;;;;;16.80;99.90;;;;;;6212490;23;20020;-87
2022/09/14 08:29:21;;;;;;;0.93;0.40;;;16.80;99.90;;;;;;6210430;22;19916;-87
2022/09/14 08:31:50;;;;;;;0.80;0.30;;;16.90;99.90;;;;;;6186097;23;20530;-86
2022/09/14 08:34:16;;;;;;;0.93;0.40;;;16.90;99.90;;;;;;6219366;23;20391;-87
2022/09/14 08:36:43;;;;;;;2.03;0.50;;;16.90;99.90;;;;;;6218257;23;20013;-89
2022/09/14 08:39:11;;;;;;;3.40;0.43;;;16.90;99.90;;;;;;6210830;23;20100;-85
2022/09/14 08:41:42;;;;;;;0.10;0.10;;;16.90;99.90;;;;;;6211781;23;20031;-86
2022/09/14 08:44:17;;;;;;;1.50;0.32;;;17.00;99.90;;;;;;6210120;23;20346;-86
2022/09/14 08:46:56;;;;;;;1.55;0.52;;;17.00;99.90;;;;;;6185028;23;20077;-86
2022/09/14 08:49:43;;;;;;;1.83;0.30;;;17.10;99.90;;;;;;6212022;23;20101;-86
2022/09/14 08:52:29;;;;;;;1.30;0.50;;;17.20;99.90;;;;;;6210054;23;20024;-85
2022/09/14 08:54:59;;;;;;;3.83;0.70;;;17.30;99.90;;;;;;6210107;23;20358;-86
2022/09/14 08:57:33;;;;;;;0.93;0.20;;;17.40;99.90;;;;;;6185178;23;20024;-86
2022/09/14 09:00:07;;;;;;;2.20;0.32;;;17.40;99.90;;;;;;6185021;23;20095;-87
2022/09/14 09:02:49;;;;;;;0.30;0.20;;;17.50;99.90;;;;;;6210061;23;20390;-85
2022/09/14 09:05:37;;;;;;;1.40;0.38;;;17.50;99.90;;;;;;6210019;23;20016;-87
2022/09/14 09:08:33;;;;;;;0.65;0.30;;;17.60;99.90;;;;;;6185252;23;20025;-86
2022/09/14 09:11:00;;;;;;;2.83;0.20;;;17.70;99.90;;;;;;6211038;23;20074;-85
2022/09/14 09:13:32;;;;;;;1.75;0.20;;;17.70;99.90;;;;;;6210034;23;20088;-85
2022/09/14 09:16:01;;;;;;;2.38;0.30;;;17.80;99.90;;;;;;6185191;23;20066;-86
2022/09/14 09:18:39;;;;;;;0.77;0.32;;;17.80;99.90;;;;;;6209806;23;20446;-87
2022/09/14 09:21:12;;;;;;;1.85;0.30;;;17.80;99.90;;;;;;6209952;23;20027;-86
2022/09/14 09:23:39;;;;;;;0.63;0.20;;;17.80;99.90;;;;;;6184618;23;20009;-86
2022/09/14 09:26:08;;;;;;;2.25;0.30;;;17.80;99.90;;;;;;6184946;23;20031;-86
2022/09/14 09:28:48;;;;;;;0.73;0.10;;;17.70;99.90;;;;;;6210111;23;20113;-86
2022/09/14 09:31:15;;;;;;;2.40;1.35;;;17.70;99.90;;;;;;6184976;23;20450;-85
2022/09/14 09:33:42;;;;;;;0.25;0.13;;;17.60;99.90;;;;;;6185061;23;20027;-86
2022/09/14 09:36:12;;;;;;;1.67;0.30;;;17.60;99.90;;;;;;6185102;23;20020;-86
2022/09/14 09:38:39;;;;;;;2.85;0.30;;;17.60;99.90;;;;;;6185181;23;20077;-85
2022/09/14 09:41:20;;;;;;;1.30;0.22;;;17.60;99.90;;;;;;6209976;22;20020;-84
2022/09/14 09:43:59;;;;;;;1.20;0.30;;;17.60;99.90;;;;;;6209806;23;20013;-85
2022/09/14 09:46:30;;;;;;;0.80;0.20;;;17.50;99.90;;;;;;6209955;23;20016;-86
2022/09/14 09:49:03;;;;;;;1.45;0.30;;;17.50;99.90;;;;;;6210049;23;20035;-86
2022/09/14 09:51:31;;;;;;;0.85;0.20;;;17.50;99.90;;;;;;6185087;23;20029;-86
2022/09/14 09:54:11;;;;;;;1.83;0.50;;;17.50;99.90;;;;;;6211454;23;20027;-89
2022/09/14 09:56:52;;;;;;;1.85;0.30;;;17.50;99.90;;;;;;6184865;23;20012;-89
2022/09/14 09:59:43;;;;;;;1.23;0.40;;;17.50;99.90;;;;;;6209749;23;20408;-85
2022/09/14 10:02:28;;;;;;;1.65;0.20;;;17.60;99.90;;;;;;6211410;23;20450;-86
2022/09/14 10:05:07;;;;;;;0.75;0.30;;;17.60;99.90;;;;;;6209767;23;20028;-87
2022/09/14 10:07:38;;;;;;;1.42;0.30;;;17.70;99.90;;;;;;6209850;23;20052;-85
2022/09/14 10:10:10;;;;;;;0.88;0.20;;;17.70;99.90;;;;;;6184972;23;20091;-86
2022/09/14 10:12:38;;;;;;;0.63;0.20;;;17.80;99.90;;;;;;6209759;23;20346;-88
2022/09/14 10:15:19;;;;;;;1.10;0.20;;;17.80;99.90;;;;;;6184892;23;20318;-85
2022/09/14 10:18:10;;;;;;;0.47;0.20;;;17.90;99.90;;;;;;6209730;23;20016;-87
2022/09/14 10:20:38;;;;;;;2.28;0.22;;;18.00;99.90;;;;;;6184922;23;20017;-89
2022/09/14 10:23:19;;;;;;;1.15;0.30;;;18.10;99.90;;;;;;6185031;23;20016;-85
2022/09/14 10:26:14;;;;;;;1.75;0.22;;;18.10;99.90;;;;;;6184764;23;20365;-85
2022/09/14 10:28:45;;;;;;;3.00;0.30;;;18.20;99.90;;;;;;6209715;23;20075;-88
2022/09/14 10:31:17;;;;;;;1.58;0.40;;;18.20;99.90;;;;;;6184697;23;20134;-86
2022/09/14 10:33:45;;;;;;;1.58;0.30;;;18.20;99.90;;;;;;6184814;23;20028;-86
2022/09/14 10:36:22;;;;;;;2.30;0.50;;;18.20;99.90;;;;;;6184974;23;20446;-87
2022/09/14 10:39:19;;;;;;;1.42;0.40;;;18.20;99.90;;;;;;6185174;23;20315;-90
2022/09/14 10:42:00;;;;;;;1.33;0.30;;;18.20;99.90;;;;;;6185174;23;20016;-87
2022/09/14 10:45:13;;;;;;;1.45;0.30;;;18.30;99.90;;;;;;6185128;23;20402;-88
2022/09/14 10:48:05;;;;;;;0.38;0.22;;;18.30;99.90;;;;;;6149545;23;20024;-89
2022/09/14 10:50:42;;;;;;;1.02;0.20;;;18.40;99.90;;;;;;6185042;23;20012;-91
2022/09/14 10:53:59;;;;;;;1.02;0.30;;;18.40;99.90;;;;;;6185073;23;20017;-89
2022/09/14 10:57:20;;;;;;;0.70;0.20;;;18.40;99.90;;;;;;6120080;23;20016;-86
2022/09/14 11:00:14;;;;;;;2.10;0.40;;;18.40;99.90;;;;;;6081606;23;20022;-85
2022/09/14 11:02:45;;;;;;;3.03;0.60;;;18.40;99.90;;;;;;6184901;23;20020;-87
2022/09/14 11:05:17;;;;;;;0.73;0.20;;;18.40;99.90;;;;;;6209492;23;20017;-86
2022/09/14 11:14:35;;;;;;;2.25;0.40;;;18.60;99.90;;;;;;6209661;22;20016;-85
2022/09/14 11:17:04;;;;;;;2.22;0.50;;;18.80;99.90;;;;;;6184460;23;20027;-88
2022/09/14 11:19:44;;;;;;;1.13;0.30;;;18.90;99.90;;;;;;6210928;23;20017;-85
2022/09/14 11:22:49;;;;;;;2.00;0.30;;;18.90;99.90;;;;;;6207475;22;20021;-88
2022/09/14 11:25:21;;;;;;;0.93;0.40;;;18.80;99.90;;;;;;6189656;23;20446;-84
2022/09/14 11:27:59;;;;;;;2.00;0.40;;;18.80;99.90;;;;;;6190910;23;20019;-86
2022/09/14 11:31:03;;;;;;;0.82;0.30;;;18.80;99.90;;;;;;6211389;23;20024;-86
2022/09/14 11:33:42;;;;;;;1.83;0.30;;;18.70;99.90;;;;;;6184707;23;20032;-89
2022/09/14 11:36:46;;;;;;;0.68;0.30;;;18.70;99.90;;;;;;6185949;23;20023;-87
2022/09/14 11:39:22;;;;;;;0.73;0.10;;;18.80;99.90;;;;;;6205027;23;20457;-93
2022/09/14 11:42:29;;;;;;;1.20;0.43;;;18.80;99.90;;;;;;6186883;23;20027;-90
2022/09/14 11:45:18;;;;;;;0.68;0.20;;;18.70;99.90;;;;;;6144326;23;20019;-84
2022/09/14 11:48:10;;;;;;;0.77;0.30;;;18.70;99.90;;;;;;6210238;23;20020;-90
2022/09/14 11:50:37;;;;;;;1.80;0.32;;;18.80;99.90;;;;;;6185883;23;20472;-84
2022/09/14 11:53:10;;;;;;;0.50;0.22;;;18.90;99.90;;;;;;6185781;23;20024;-88
2022/09/14 11:55:40;;;;;;;2.78;0.40;;;19.00;99.90;;;;;;6186032;23;20021;-84
2022/09/14 11:58:13;;;;;;;1.33;0.30;;;19.10;99.90;;;;;;6210972;23;20020;-84
2022/09/14 12:00:48;;;;;;;1.13;0.40;;;19.20;99.90;;;;;;6211211;23;20059;-84
2022/09/14 12:03:20;;;;;;;1.67;0.40;;;19.30;99.90;;;;;;6193571;23;20023;-83
2022/09/14 12:05:48;;;;;;;3.13;0.30;;;19.40;99.90;;;;;;6194050;23;20028;-86
2022/09/14 12:08:29;;;;;;;1.35;0.28;;;19.40;99.90;;;;;;6212860;23;20012;-87
2022/09/14 12:11:07;;;;;;;1.25;0.52;;;19.50;99.90;;;;;;6208460;23;20048;-89
2022/09/14 12:13:33;;;;;;;1.13;0.40;;;19.50;99.90;;;;;;6209469;23;20514;-86
2022/09/14 12:16:07;;;;;;;0.93;0.30;;;19.60;99.90;;;;;;6209800;23;20035;-84
2022/09/14 12:18:37;;;;;;;1.13;0.47;;;19.80;99.90;;;;;;6211630;23;20020;-86
2022/09/14 12:21:06;;;;;;;2.15;0.50;;;19.90;99.90;;;;;;6210019;23;20085;-90
2022/09/14 12:23:42;;;;;;;1.38;0.25;;;20.00;99.90;;;;;;6210004;23;20021;-85
2022/09/14 12:26:33;;;;;;;0.90;0.17;;;20.00;99.80;;;;;;6210709;23;20345;-85
2022/09/14 12:29:22;;;;;;;0.88;0.30;;;20.10;99.70;;;;;;6160105;22;20092;-87
2022/09/14 12:31:50;;;;;;;1.45;0.20;;;20.10;99.90;;;;;;6156017;22;20025;-84
2022/09/14 12:34:30;;;;;;;3.05;0.30;;;20.10;99.30;;;;;;6155783;23;20587;-89
2022/09/14 12:36:58;;;;;;;1.20;0.20;;;20.10;99.40;;;;;;6155744;23;20397;-85
2022/09/14 12:39:34;;;;;;;3.83;1.17;;;20.00;99.30;;;;;;6155909;23;20048;-86
2022/09/14 12:42:02;;;;;;;0.93;0.30;;;20.00;99.00;;;;;;6131625;23;20056;-84
2022/09/14 12:44:42;;;;;;;0.77;0.38;;;20.00;98.90;;;;;;6155474;23;20075;-90
2022/09/14 12:47:28;;;;;;;0.40;0.20;;;20.00;99.20;;;;;;6150933;22;20024;-86
2022/09/14 12:50:14;;;;;;;2.70;0.40;;;20.10;99.00;;;;;;6128722;23;20021;-87
2022/09/14 12:52:42;;;;;;;0.47;0.28;;;20.10;98.50;;;;;;6155780;23;20066;-85
2022/09/14 12:55:36;;;;;;;2.22;0.40;;;20.00;97.90;;;;;;6181692;23;20048;-88
2022/09/14 12:58:50;;;;;;;1.73;0.40;;;19.90;98.20;;;;;;6155770;23;20024;-87
2022/09/14 13:01:26;;;;;;;2.25;0.40;;;19.70;98.10;;;;;;6144542;22;20017;-85
2022/09/14 13:03:56;;;;;;;1.95;0.50;;;19.60;98.60;;;;;;6155284;22;20338;-87
2022/09/14 13:06:25;;;;;;;0.50;0.20;;;19.50;98.40;;;;;;6198246;22;20021;-85
2022/09/14 13:08:57;;;;;;;4.05;0.55;;;19.40;98.80;;;;;;6181320;22;20017;-86
2022/09/14 13:11:37;;;;;;;2.38;0.40;;;19.30;98.80;;;;;;6155544;22;20046;-85
2022/09/14 13:14:52;;;;;;;1.13;0.30;;;19.20;98.60;;;;;;6131313;23;20459;-84
2022/09/14 13:17:22;;;;;;;0.70;0.30;;;19.20;98.60;;;;;;6155663;23;20103;-86
2022/09/14 13:19:56;;;;;;;0.43;0.30;;;19.10;98.80;;;;;;6155384;23;20017;-86
2022/09/14 13:22:24;;;;;;;2.17;0.75;;;19.00;98.70;;;;;;6131156;23;20013;-86
2022/09/14 13:24:51;;;;;;;0.60;0.30;;;19.00;98.80;;;;;;6155361;23;20017;-89
2022/09/14 13:27:30;;;;;;;0.45;0.20;;;19.00;98.70;;;;;;6171933;23;20025;-84